createdAt,value
2019-03-10T00:01:47.228Z,12.20
2019-03-10T00:04:19.130Z,12.20
2019-03-10T00:06:51.188Z,12.20
2019-03-10T00:09:23.081Z,12.20
2019-03-10T00:11:55.212Z,12.20
2019-03-10T00:14:27.207Z,12.20
2019-03-10T00:16:59.339Z,12.20
2019-03-10T00:19:31.423Z,12.10
2019-03-10T00:22:03.485Z,12.10
2019-03-10T00:24:35.784Z,12.10
2019-03-10T00:27:07.838Z,12.20
2019-03-10T00:29:39.895Z,12.20
2019-03-10T00:32:12.041Z,12.20
2019-03-10T00:34:44.123Z,12.20
2019-03-10T00:37:16.342Z,12.20
2019-03-10T00:40:53.354Z,12.20
2019-03-10T00:44:08.818Z,12.10
2019-03-10T00:47:44.216Z,12.10
2019-03-10T00:51:29.014Z,12.00
2019-03-10T00:54:01.036Z,12.00
2019-03-10T00:56:33.078Z,12.10
2019-03-10T00:59:05.090Z,12.10
2019-03-10T01:01:37.043Z,12.10
2019-03-10T01:04:09.084Z,12.10
2019-03-10T01:06:40.945Z,12.10
2019-03-10T01:09:13.317Z,12.00
2019-03-10T01:11:45.707Z,11.90
2019-03-10T01:14:17.674Z,12.00
2019-03-10T01:16:49.993Z,11.90
2019-03-10T01:19:23.505Z,11.90
2019-03-10T01:21:56.010Z,11.90
2019-03-10T01:24:27.964Z,11.90
2019-03-10T01:27:00.031Z,11.90
2019-03-10T01:29:32.034Z,11.80
2019-03-10T01:32:32.191Z,11.80
2019-03-10T01:35:17.466Z,11.80
2019-03-10T01:37:49.389Z,11.80
2019-03-10T01:40:21.484Z,11.70
2019-03-10T01:42:53.619Z,11.70
2019-03-10T01:45:25.678Z,11.70
2019-03-10T01:47:59.333Z,11.70
2019-03-10T01:50:31.762Z,11.70
2019-03-10T01:53:03.731Z,11.70
2019-03-10T01:55:35.764Z,11.60
2019-03-10T01:58:08.815Z,11.70
2019-03-10T02:00:40.847Z,11.60
2019-03-10T02:03:12.982Z,11.70
2019-03-10T02:05:44.943Z,11.70
2019-03-10T02:08:16.924Z,11.70
2019-03-10T02:10:48.779Z,11.70
2019-03-10T02:13:21.091Z,11.70
2019-03-10T02:15:53.343Z,11.70
2019-03-10T02:18:25.323Z,11.70
2019-03-10T02:20:58.771Z,11.70
2019-03-10T02:23:30.760Z,11.70
2019-03-10T02:26:02.695Z,11.70
2019-03-10T02:28:34.740Z,11.70
2019-03-10T02:31:06.849Z,11.70
2019-03-10T02:33:39.194Z,11.70
2019-03-10T02:36:11.684Z,11.70
2019-03-10T02:38:44.129Z,11.80
2019-03-10T02:41:16.161Z,11.70
2019-03-10T02:43:48.080Z,11.80
2019-03-10T02:46:20.076Z,11.80
2019-03-10T02:48:52.111Z,11.80
2019-03-10T02:51:24.076Z,11.80
2019-03-10T02:53:55.921Z,11.80
2019-03-10T02:56:28.159Z,11.90
2019-03-10T02:59:00.560Z,11.90
2019-03-10T03:01:32.487Z,11.90
2019-03-10T03:04:04.628Z,11.90
2019-03-10T03:06:36.798Z,11.90
2019-03-10T03:09:09.168Z,11.80
2019-03-10T03:11:42.117Z,11.90
2019-03-10T03:14:13.947Z,11.90
2019-03-10T03:16:47.033Z,12.00
2019-03-10T03:19:18.948Z,12.00
2019-03-10T03:21:50.938Z,12.00
2019-03-10T03:24:23.033Z,12.00
2019-03-10T03:26:54.985Z,12.00
2019-03-10T03:29:27.261Z,12.00
2019-03-10T03:31:59.195Z,12.00
2019-03-10T03:34:31.210Z,12.00
2019-03-10T03:37:03.247Z,11.90
2019-03-10T03:39:43.395Z,11.80
2019-03-10T03:42:15.372Z,11.90
2019-03-10T03:44:47.462Z,11.70
2019-03-10T03:47:19.478Z,11.70
2019-03-10T03:49:51.747Z,11.60
2019-03-10T03:52:23.775Z,11.60
2019-03-10T03:54:55.696Z,11.50
2019-03-10T03:57:27.577Z,11.40
2019-03-10T03:59:59.467Z,11.40
2019-03-10T04:02:39.094Z,11.50
2019-03-10T04:05:11.405Z,11.50
2019-03-10T04:07:43.615Z,11.50
2019-03-10T04:10:15.617Z,11.40
2019-03-10T04:12:47.454Z,11.40
2019-03-10T04:15:19.567Z,11.50
2019-03-10T04:17:51.581Z,11.40
2019-03-10T04:20:23.498Z,11.20
2019-03-10T04:22:55.600Z,11.20
2019-03-10T04:25:27.609Z,11.20
2019-03-10T04:27:59.580Z,11.20
2019-03-10T04:30:31.910Z,11.10
2019-03-10T04:33:03.786Z,11.20
2019-03-10T04:35:35.786Z,11.20
2019-03-10T04:38:07.741Z,11.10
2019-03-10T04:40:40.722Z,11.10
2019-03-10T04:43:12.828Z,11.00
2019-03-10T04:45:44.802Z,10.90
2019-03-10T04:48:16.945Z,10.80
2019-03-10T04:50:48.844Z,10.90
2019-03-10T04:53:21.007Z,10.90
2019-03-10T04:56:17.823Z,10.80
2019-03-10T04:58:51.721Z,10.90
2019-03-10T05:01:25.002Z,10.80
2019-03-10T05:03:57.006Z,10.80
2019-03-10T05:06:28.882Z,10.80
2019-03-10T05:09:00.975Z,10.80
2019-03-10T05:11:34.646Z,10.80
2019-03-10T05:14:06.556Z,10.80
2019-03-10T05:16:38.484Z,10.80
2019-03-10T05:19:10.545Z,10.90
2019-03-10T05:21:42.621Z,10.90
2019-03-10T05:24:15.995Z,10.80
2019-03-10T05:26:47.809Z,10.70
2019-03-10T05:29:19.726Z,10.80
2019-03-10T05:31:51.740Z,10.80
2019-03-10T05:34:23.731Z,10.70
2019-03-10T05:36:55.764Z,10.70
2019-03-10T05:39:27.710Z,10.80
2019-03-10T05:41:59.731Z,10.70
2019-03-10T05:44:31.780Z,10.70
2019-03-10T05:47:03.792Z,10.70
2019-03-10T05:49:36.023Z,10.60
2019-03-10T05:52:08.060Z,10.60
2019-03-10T05:54:40.314Z,10.50
2019-03-10T05:57:12.239Z,10.50
2019-03-10T05:59:44.218Z,10.40
2019-03-10T06:02:15.948Z,10.30
2019-03-10T06:04:48.259Z,10.30
2019-03-10T06:07:20.383Z,10.30
2019-03-10T06:09:52.348Z,10.30
2019-03-10T06:12:24.413Z,10.40
2019-03-10T06:14:56.173Z,10.20
2019-03-10T06:17:28.101Z,10.20
2019-03-10T06:20:00.007Z,10.10
2019-03-10T06:22:32.143Z,10.00
2019-03-10T06:25:04.020Z,10.00
2019-03-10T06:27:36.340Z,10.10
2019-03-10T06:30:08.831Z,10.00
2019-03-10T06:32:40.985Z,10.00
2019-03-10T06:35:13.383Z,10.10
2019-03-10T06:37:45.361Z,10.00
2019-03-10T06:40:17.432Z,10.10
2019-03-10T06:42:49.519Z,10.10
2019-03-10T06:45:21.553Z,10.10
2019-03-10T06:47:53.591Z,10.10
2019-03-10T06:50:25.610Z,10.00
2019-03-10T06:52:57.668Z,10.10
2019-03-10T06:55:29.945Z,10.10
2019-03-10T06:58:01.955Z,10.20
2019-03-10T07:00:33.904Z,10.20
2019-03-10T07:03:06.034Z,10.30
2019-03-10T07:05:38.021Z,10.40
2019-03-10T07:08:09.994Z,10.40
2019-03-10T07:10:41.957Z,10.50
2019-03-10T07:13:13.795Z,10.60
2019-03-10T07:15:45.888Z,10.60
2019-03-10T07:18:18.053Z,10.60
2019-03-10T07:20:50.276Z,10.60
2019-03-10T07:23:22.105Z,10.70
2019-03-10T07:26:06.779Z,10.70
2019-03-10T07:28:44.158Z,10.70
2019-03-10T07:31:25.344Z,10.80
2019-03-10T07:34:14.943Z,10.80
2019-03-10T07:37:15.094Z,10.90
2019-03-10T07:40:08.928Z,11.00
2019-03-10T07:42:59.857Z,11.00
2019-03-10T07:45:52.657Z,11.20
2019-03-10T07:48:49.907Z,11.30
2019-03-10T07:51:28.123Z,11.30
2019-03-10T07:54:15.430Z,11.30
2019-03-10T07:56:54.651Z,11.40
2019-03-10T07:59:51.403Z,11.40
2019-03-10T08:02:45.842Z,11.50
2019-03-10T08:05:33.327Z,11.60
2019-03-10T08:08:27.375Z,11.60
2019-03-10T08:11:10.976Z,11.70
2019-03-10T08:13:49.746Z,11.70
2019-03-10T08:16:49.541Z,11.80
2019-03-10T08:19:49.375Z,11.90
2019-03-10T08:22:43.317Z,11.90
2019-03-10T08:25:37.073Z,11.90
2019-03-10T08:28:33.845Z,12.00
2019-03-10T08:31:15.227Z,12.00
2019-03-10T08:33:58.323Z,12.00
2019-03-10T08:36:48.948Z,12.00
2019-03-10T08:39:40.033Z,12.10
2019-03-10T08:42:30.983Z,12.10
2019-03-10T08:45:12.760Z,12.10
2019-03-10T08:48:01.104Z,12.10
2019-03-10T08:50:48.383Z,12.10
2019-03-10T08:53:35.871Z,12.20
2019-03-10T08:56:35.936Z,12.30
2019-03-10T08:59:15.772Z,12.30
2019-03-10T09:02:15.695Z,12.30
2019-03-10T09:05:24.643Z,12.30
2019-03-10T09:08:06.359Z,12.50
2019-03-10T09:11:00.372Z,12.40
2019-03-10T09:13:44.521Z,12.50
2019-03-10T09:16:23.843Z,12.50
2019-03-10T09:19:23.634Z,12.50
2019-03-10T09:22:20.651Z,12.60
2019-03-10T09:25:05.686Z,12.60
2019-03-10T09:27:57.865Z,12.70
2019-03-10T09:30:47.493Z,12.70
2019-03-10T09:33:27.805Z,12.70
2019-03-10T09:36:17.509Z,12.70
2019-03-10T09:39:09.249Z,12.80
2019-03-10T09:41:49.961Z,12.90
2019-03-10T09:44:39.488Z,13.00
2019-03-10T09:47:33.821Z,13.00
2019-03-10T09:50:28.679Z,13.00
2019-03-10T09:53:28.947Z,13.10
2019-03-10T09:56:18.335Z,13.10
2019-03-10T09:59:09.372Z,13.10
2019-03-10T10:02:06.225Z,13.20
2019-03-10T10:05:09.454Z,13.20
2019-03-10T10:08:00.476Z,13.30
2019-03-10T10:11:03.254Z,13.20
2019-03-10T10:13:52.915Z,13.20
2019-03-10T10:16:46.781Z,13.30
2019-03-10T10:19:42.654Z,13.40
2019-03-10T10:22:39.257Z,13.40
2019-03-10T10:25:30.541Z,13.50
2019-03-10T10:28:36.571Z,13.50
2019-03-10T10:31:18.034Z,13.60
2019-03-10T10:34:16.068Z,13.80
2019-03-10T10:37:07.086Z,13.90
2019-03-10T10:39:48.918Z,14.00
2019-03-10T10:42:40.094Z,14.10
2019-03-10T10:45:27.991Z,14.10
2019-03-10T10:48:17.478Z,14.10
2019-03-10T10:50:59.256Z,14.20
2019-03-10T10:53:44.567Z,14.10
2019-03-10T10:56:34.249Z,14.20
2019-03-10T10:59:27.911Z,14.30
2019-03-10T11:02:17.307Z,14.40
2019-03-10T11:04:57.604Z,14.40
2019-03-10T11:07:54.557Z,14.60
2019-03-10T11:10:40.590Z,14.60
2019-03-10T11:13:34.497Z,14.70
2019-03-10T11:16:13.203Z,14.70
2019-03-10T11:19:09.958Z,14.90
2019-03-10T11:22:06.435Z,14.90
2019-03-10T11:24:57.344Z,14.90
2019-03-10T11:27:53.344Z,15.00
2019-03-10T11:30:59.164Z,15.20
2019-03-10T11:33:41.179Z,15.30
2019-03-10T11:36:43.879Z,15.30
2019-03-10T11:39:38.975Z,15.30
2019-03-10T11:42:35.871Z,15.50
2019-03-10T11:45:19.319Z,15.60
2019-03-10T11:48:10.221Z,15.70
2019-03-10T11:50:59.989Z,15.80
2019-03-10T11:53:47.039Z,15.90
2019-03-10T11:56:29.982Z,15.90
2019-03-10T11:59:27.716Z,16.00
2019-03-10T12:02:16.000Z,16.00
2019-03-10T12:04:57.202Z,16.10
2019-03-10T12:07:36.124Z,16.20
2019-03-10T12:10:09.547Z,16.30
2019-03-10T12:12:44.406Z,16.30
2019-03-10T12:15:16.343Z,16.30
2019-03-10T12:17:48.535Z,16.30
2019-03-10T12:20:20.382Z,16.20
2019-03-10T12:22:52.401Z,16.10
2019-03-10T12:25:24.375Z,16.00
2019-03-10T12:28:00.302Z,15.90
2019-03-10T12:30:32.340Z,15.80
2019-03-10T12:33:04.347Z,15.90
2019-03-10T12:35:36.426Z,15.80
2019-03-10T12:38:08.410Z,15.80
2019-03-10T12:40:40.379Z,15.80
2019-03-10T12:43:12.421Z,15.90
2019-03-10T12:45:44.597Z,15.90
2019-03-10T12:48:16.642Z,15.90
2019-03-10T12:50:48.780Z,15.70
2019-03-10T12:53:20.852Z,15.70
2019-03-10T12:55:52.769Z,15.60
2019-03-10T12:58:24.885Z,15.60
2019-03-10T13:01:07.173Z,15.60
2019-03-10T13:03:35.543Z,15.60
2019-03-10T13:06:07.563Z,15.60
2019-03-10T13:08:39.586Z,15.70
2019-03-10T13:11:11.780Z,15.70
2019-03-10T13:13:43.893Z,15.90
2019-03-10T13:16:15.915Z,15.90
2019-03-10T13:18:47.996Z,15.90
2019-03-10T13:21:20.054Z,15.90
2019-03-10T13:23:51.999Z,15.90
2019-03-10T13:26:24.241Z,15.80
2019-03-10T13:28:56.332Z,15.60
2019-03-10T13:31:28.306Z,15.60
2019-03-10T13:34:00.170Z,15.60
2019-03-10T13:36:33.671Z,15.50
2019-03-10T13:39:40.628Z,15.50
2019-03-10T13:42:12.745Z,15.60
2019-03-10T13:44:45.009Z,15.50
2019-03-10T13:47:17.681Z,15.60
2019-03-10T13:49:49.643Z,15.50
2019-03-10T13:52:23.417Z,15.60
2019-03-10T13:54:55.508Z,15.50
2019-03-10T13:57:27.662Z,15.50
2019-03-10T14:00:00.718Z,15.50
2019-03-10T14:02:34.132Z,15.60
2019-03-10T14:05:07.258Z,15.60
2019-03-10T14:07:39.484Z,15.60
2019-03-10T14:10:11.723Z,15.70
2019-03-10T14:12:44.064Z,15.60
2019-03-10T14:15:16.102Z,15.50
2019-03-10T14:17:48.102Z,15.50
2019-03-10T14:20:20.043Z,15.60
2019-03-10T14:22:52.059Z,15.50
2019-03-10T14:25:25.124Z,15.50
2019-03-10T14:27:57.162Z,15.50
2019-03-10T14:30:29.172Z,15.50
2019-03-10T14:33:01.666Z,15.50
2019-03-10T14:35:34.495Z,15.40
2019-03-10T14:38:06.529Z,15.50
2019-03-10T14:40:38.875Z,15.40
2019-03-10T14:43:11.242Z,15.40
2019-03-10T14:45:43.337Z,15.30
2019-03-10T14:48:16.697Z,15.30
2019-03-10T14:50:48.624Z,15.40
2019-03-10T14:53:20.508Z,15.40
2019-03-10T14:55:52.513Z,15.50
2019-03-10T14:58:24.433Z,15.50
2019-03-10T15:00:57.544Z,15.40
2019-03-10T15:03:30.177Z,15.30
2019-03-10T15:06:02.256Z,15.20
2019-03-10T15:08:34.538Z,15.20
2019-03-10T15:11:06.635Z,15.10
2019-03-10T15:13:38.636Z,15.10
2019-03-10T15:16:10.735Z,15.10
2019-03-10T15:18:42.764Z,15.00
2019-03-10T15:21:14.806Z,15.00
2019-03-10T15:23:46.751Z,15.00
2019-03-10T15:26:18.740Z,14.90
2019-03-10T15:28:51.406Z,14.90
2019-03-10T15:31:23.468Z,14.80
2019-03-10T15:33:55.534Z,14.70
2019-03-10T15:36:27.518Z,14.50
2019-03-10T15:38:59.550Z,14.50
2019-03-10T15:41:31.407Z,14.30
2019-03-10T15:44:03.285Z,14.30
2019-03-10T15:46:35.170Z,14.30
2019-03-10T15:49:07.171Z,14.30
2019-03-10T15:51:39.187Z,14.20
2019-03-10T15:54:11.320Z,14.10
2019-03-10T15:56:43.387Z,14.00
2019-03-10T15:59:15.371Z,14.00
2019-03-10T16:01:47.502Z,13.90
2019-03-10T16:04:23.653Z,13.90
2019-03-10T16:06:55.867Z,13.90
2019-03-10T16:09:27.998Z,13.90
2019-03-10T16:11:59.903Z,13.90
2019-03-10T16:14:31.968Z,13.90
2019-03-10T16:17:04.026Z,13.90
2019-03-10T16:19:36.476Z,13.90
2019-03-10T16:22:08.495Z,13.90
2019-03-10T16:24:40.672Z,13.90
2019-03-10T16:27:12.966Z,13.70
2019-03-10T16:29:44.987Z,13.60
2019-03-10T16:32:17.101Z,13.40
2019-03-10T16:34:49.088Z,13.40
2019-03-10T16:37:21.100Z,13.30
2019-03-10T16:39:53.370Z,13.10
2019-03-10T16:42:25.276Z,13.00
2019-03-10T16:44:57.215Z,13.00
2019-03-10T16:47:29.522Z,13.10
2019-03-10T16:50:01.653Z,13.00
2019-03-10T16:52:33.745Z,12.90
2019-03-10T16:55:07.533Z,12.80
2019-03-10T16:57:39.477Z,12.70
2019-03-10T17:00:12.439Z,12.60
2019-03-10T17:02:45.150Z,12.60
2019-03-10T17:05:17.387Z,12.60
2019-03-10T17:07:49.826Z,12.60
2019-03-10T17:10:21.941Z,12.60
2019-03-10T17:12:53.929Z,12.50
2019-03-10T17:15:26.070Z,12.50
2019-03-10T17:17:58.400Z,12.40
2019-03-10T17:20:30.476Z,12.30
2019-03-10T17:23:02.618Z,12.30
2019-03-10T17:25:34.652Z,12.30
2019-03-10T17:28:06.663Z,12.30
2019-03-10T17:30:39.052Z,12.20
2019-03-10T17:33:12.122Z,12.10
2019-03-10T17:35:44.087Z,12.10
2019-03-10T17:38:16.806Z,12.10
2019-03-10T17:40:48.749Z,11.90
2019-03-10T17:43:20.871Z,11.90
2019-03-10T17:45:52.887Z,11.80
2019-03-10T17:48:24.924Z,11.80
2019-03-10T17:50:56.930Z,11.60
2019-03-10T17:53:28.799Z,11.60
2019-03-10T17:56:00.900Z,11.60
2019-03-10T17:58:34.335Z,11.60
2019-03-10T18:01:06.501Z,11.60
2019-03-10T18:03:39.050Z,11.60
2019-03-10T18:06:11.196Z,11.60
2019-03-10T18:08:43.290Z,11.60
2019-03-10T18:11:15.348Z,11.70
2019-03-10T18:13:47.332Z,11.70
2019-03-10T18:16:19.462Z,11.70
2019-03-10T18:18:51.532Z,11.60
2019-03-10T18:21:24.642Z,11.60
2019-03-10T18:23:56.748Z,11.50
2019-03-10T18:26:29.827Z,11.40
2019-03-10T18:29:01.894Z,11.30
2019-03-10T18:31:33.924Z,11.20
2019-03-10T18:34:05.975Z,11.10
2019-03-10T18:36:38.095Z,11.10
2019-03-10T18:39:12.004Z,11.00
2019-03-10T18:41:44.092Z,11.00
2019-03-10T18:44:16.075Z,10.90
2019-03-10T18:46:48.133Z,10.20
2019-03-10T18:49:20.162Z,9.70
2019-03-10T18:51:52.109Z,9.50
2019-03-10T18:54:24.158Z,9.20
2019-03-10T18:56:56.150Z,9.10
2019-03-10T18:59:28.188Z,9.20
2019-03-10T19:02:00.124Z,9.20
2019-03-10T19:04:32.174Z,9.20
2019-03-10T19:07:04.136Z,9.20
2019-03-10T19:09:36.213Z,9.20
2019-03-10T19:12:08.224Z,9.10
2019-03-10T19:14:40.283Z,8.90
2019-03-10T19:17:12.328Z,8.90
2019-03-10T19:19:44.335Z,8.90
2019-03-10T19:22:16.624Z,8.90
2019-03-10T19:24:48.746Z,8.80
2019-03-10T19:27:29.741Z,8.90
2019-03-10T19:29:54.465Z,8.90
2019-03-10T19:32:26.647Z,8.80
2019-03-10T19:34:58.806Z,8.80
2019-03-10T19:37:30.750Z,8.80
2019-03-10T19:40:03.760Z,8.70
2019-03-10T19:42:36.588Z,8.70
2019-03-10T19:45:10.529Z,8.70
2019-03-10T19:47:42.582Z,8.70
2019-03-10T19:50:15.616Z,8.60
2019-03-10T19:52:47.746Z,8.60
2019-03-10T19:55:19.871Z,8.60
2019-03-10T19:57:51.816Z,8.60
2019-03-10T20:00:24.157Z,8.60
2019-03-10T20:02:56.328Z,8.60
2019-03-10T20:05:28.303Z,8.60
2019-03-10T20:08:00.370Z,8.60
2019-03-10T20:10:32.439Z,8.60
2019-03-10T20:13:04.491Z,8.50
2019-03-10T20:15:36.449Z,8.50
2019-03-10T20:18:08.570Z,8.60
2019-03-10T20:20:40.672Z,8.60
2019-03-10T20:23:12.750Z,8.60
2019-03-10T20:25:44.737Z,8.60
2019-03-10T20:28:16.878Z,8.60
2019-03-10T20:30:48.909Z,8.60
2019-03-10T20:33:20.978Z,8.60
2019-03-10T20:35:52.905Z,8.50
2019-03-10T20:38:24.987Z,8.50
2019-03-10T20:40:56.972Z,8.50
2019-03-10T20:43:29.001Z,8.50
2019-03-10T20:46:00.957Z,8.50
2019-03-10T20:48:34.233Z,8.50
2019-03-10T20:51:06.233Z,8.40
2019-03-10T20:53:39.291Z,8.30
2019-03-10T20:56:11.444Z,8.30
2019-03-10T20:58:43.525Z,8.30
2019-03-10T21:01:15.562Z,8.30
2019-03-10T21:03:48.708Z,8.30
2019-03-10T21:06:21.191Z,8.20
2019-03-10T21:08:53.184Z,8.20
2019-03-10T21:11:25.314Z,8.10
2019-03-10T21:13:57.600Z,8.20
2019-03-10T21:16:29.679Z,8.10
2019-03-10T21:19:01.900Z,8.10
2019-03-10T21:21:34.297Z,8.10
2019-03-10T21:24:06.500Z,8.10
2019-03-10T21:26:38.476Z,8.20
2019-03-10T21:29:10.504Z,8.20
2019-03-10T21:31:42.575Z,8.20
2019-03-10T21:34:14.567Z,8.30
2019-03-10T21:36:46.477Z,8.20
2019-03-10T21:39:18.577Z,8.20
2019-03-10T21:41:50.708Z,8.20
2019-03-10T21:44:26.392Z,8.20
2019-03-10T21:46:56.337Z,8.30
2019-03-10T21:49:28.370Z,8.10
2019-03-10T21:52:00.758Z,8.10
2019-03-10T21:54:32.621Z,8.10
2019-03-10T21:57:04.610Z,8.10
2019-03-10T21:59:36.462Z,8.20
2019-03-10T22:02:08.599Z,8.10
2019-03-10T22:04:40.443Z,8.10
2019-03-10T22:07:12.466Z,8.20
2019-03-10T22:09:44.568Z,8.10
2019-03-10T22:12:16.587Z,8.10
2019-03-10T22:14:48.537Z,8.00
2019-03-10T22:17:20.498Z,8.00
2019-03-10T22:19:52.487Z,8.00
2019-03-10T22:22:24.453Z,8.00
2019-03-10T22:24:56.721Z,8.00
2019-03-10T22:27:28.628Z,8.00
2019-03-10T22:30:00.500Z,8.00
2019-03-10T22:32:32.717Z,8.00
2019-03-10T22:35:05.212Z,8.00
2019-03-10T22:37:37.284Z,8.00
2019-03-10T22:40:10.949Z,7.90
2019-03-10T22:42:43.081Z,7.90
2019-03-10T22:45:15.345Z,7.90
2019-03-10T22:47:47.425Z,7.90
2019-03-10T22:50:19.724Z,7.90
2019-03-10T22:52:51.982Z,7.90
2019-03-10T22:55:23.993Z,8.00
2019-03-10T22:57:56.041Z,8.10
2019-03-10T23:00:39.428Z,8.00
2019-03-10T23:03:13.039Z,8.00
2019-03-10T23:05:45.116Z,8.00
2019-03-10T23:08:17.193Z,8.00
2019-03-10T23:10:49.304Z,8.10
2019-03-10T23:13:21.307Z,8.10
2019-03-10T23:15:53.413Z,8.00
2019-03-10T23:18:25.614Z,8.10
2019-03-10T23:20:57.668Z,8.10
2019-03-10T23:23:29.580Z,8.20
2019-03-10T23:26:01.741Z,8.10
2019-03-10T23:28:33.645Z,8.10
2019-03-10T23:31:05.974Z,8.10
2019-03-10T23:33:38.248Z,8.10
2019-03-10T23:36:10.366Z,8.20
2019-03-10T23:38:42.741Z,8.10
2019-03-10T23:41:14.890Z,8.00
2019-03-10T23:43:46.870Z,7.80
2019-03-10T23:46:18.758Z,7.80
2019-03-10T23:48:50.786Z,7.70
2019-03-10T23:51:23.151Z,7.60
2019-03-10T23:53:55.409Z,7.70
2019-03-10T23:56:27.741Z,7.70
2019-03-10T23:59:00.727Z,7.60
